Time;durP1;ratioP1;P1;durP2;ratioP2;P2;SDS_P1;SDS_P2;PMS_P1;PMS_P2;Temp;Humidity;BMP_temperature;BMP_pressure;BME280_temperature;BME280_humidity;BME280_pressure;Samples;Min_cycle;Max_cycle;Signal;HPM_P1;HPM_P2
2021/08/03 00:01:41;;;;;;;6.68;4.70;;;;;;;;;;5040496;28;20047;-77
2021/08/03 00:04:25;;;;;;;6.13;4.78;;;;;;;;;;5043056;28;20040;-75
2021/08/03 00:07:10;;;;;;;6.22;4.60;;;;;;;;;;5034847;28;20046;-77
2021/08/03 00:09:56;;;;;;;8.88;5.05;;;;;;;;;;5047114;28;20117;-76
2021/08/03 00:12:41;;;;;;;7.85;4.60;;;;;;;;;;5064627;28;20142;-76
2021/08/03 00:15:25;;;;;;;7.30;4.40;;;;;;;;;;5053895;28;20048;-77
2021/08/03 00:18:10;;;;;;;7.15;4.90;;;;;;;;;;5045871;28;20108;-76
2021/08/03 00:20:54;;;;;;;6.40;4.38;;;;;;;;;;5040815;28;20031;-77
2021/08/03 00:23:42;;;;;;;6.63;4.35;;;;;;;;;;5030211;28;20072;-76
2021/08/03 00:26:27;;;;;;;6.93;4.50;;;;;;;;;;5051283;28;20042;-76
2021/08/03 00:29:12;;;;;;;6.35;4.30;;;;;;;;;;5038452;28;20466;-77
2021/08/03 00:31:56;;;;;;;6.15;4.55;;;;;;;;;;5047927;28;20191;-76
2021/08/03 00:34:41;;;;;;;6.40;4.40;;;;;;;;;;5046210;28;20511;-77
2021/08/03 00:37:26;;;;;;;6.45;4.28;;;;;;;;;;5044804;28;20047;-77
2021/08/03 00:40:11;;;;;;;6.78;4.32;;;;;;;;;;5060026;28;20128;-77
2021/08/03 00:42:55;;;;;;;6.47;4.53;;;;;;;;;;5021475;28;20044;-77
2021/08/03 00:45:39;;;;;;;6.28;4.47;;;;;;;;;;5067015;28;20042;-74
2021/08/03 00:48:24;;;;;;;6.28;4.07;;;;;;;;;;5039019;28;20143;-74
2021/08/03 00:51:09;;;;;;;5.43;4.05;;;;;;;;;;5053576;28;20090;-74
2021/08/03 00:53:53;;;;;;;5.70;4.28;;;;;;;;;;5056489;28;20048;-75
2021/08/03 00:56:38;;;;;;;7.50;4.15;;;;;;;;;;5056569;28;20043;-75
2021/08/03 00:59:22;;;;;;;6.32;4.10;;;;;;;;;;5040679;28;20133;-74
2021/08/03 01:02:07;;;;;;;6.18;4.00;;;;;;;;;;5035192;28;20866;-74
2021/08/03 01:04:52;;;;;;;6.03;3.75;;;;;;;;;;5047298;28;20554;-74
2021/08/03 01:07:54;;;;;;;5.53;3.80;;;;;;;;;;5052979;28;20040;-74
2021/08/03 01:10:49;;;;;;;5.43;3.80;;;;;;;;;;5058914;28;20052;-74
2021/08/03 01:13:33;;;;;;;5.57;3.70;;;;;;;;;;5036396;28;20151;-75
2021/08/03 01:16:25;;;;;;;5.82;3.92;;;;;;;;;;5049812;28;20114;-74
2021/08/03 01:19:20;;;;;;;5.80;4.10;;;;;;;;;;5033755;28;20043;-76
2021/08/03 01:22:06;;;;;;;5.03;3.60;;;;;;;;;;5050862;28;20722;-75
2021/08/03 01:25:06;;;;;;;5.60;3.85;;;;;;;;;;5036747;28;20059;-74
2021/08/03 01:28:11;;;;;;;5.40;3.80;;;;;;;;;;5054586;28;20141;-75
2021/08/03 01:31:15;;;;;;;5.13;3.75;;;;;;;;;;5056183;28;20259;-74
2021/08/03 01:34:03;;;;;;;5.03;3.55;;;;;;;;;;5049991;28;20043;-74
2021/08/03 01:36:52;;;;;;;5.93;3.50;;;;;;;;;;5039958;28;20409;-74
2021/08/03 01:39:41;;;;;;;5.20;3.10;;;;;;;;;;5032975;28;20036;-74
2021/08/03 01:42:26;;;;;;;6.28;3.70;;;;;;;;;;5075649;28;20063;-74
2021/08/03 01:45:11;;;;;;;6.13;3.67;;;;;;;;;;5051803;28;20043;-74
2021/08/03 01:47:55;;;;;;;5.63;3.55;;;;;;;;;;5052788;28;20182;-74
2021/08/03 01:50:40;;;;;;;5.40;3.78;;;;;;;;;;5045410;28;20048;-74
2021/08/03 01:53:25;;;;;;;5.25;3.70;;;;;;;;;;5047254;28;20067;-74
2021/08/03 01:56:10;;;;;;;4.00;3.33;;;;;;;;;;5036067;28;20035;-75
2021/08/03 01:58:54;;;;;;;5.50;3.67;;;;;;;;;;5061011;28;20132;-75
2021/08/03 02:01:38;;;;;;;4.82;3.38;;;;;;;;;;5029555;28;20041;-75
2021/08/03 02:04:23;;;;;;;4.63;3.40;;;;;;;;;;5051696;28;20043;-74
2021/08/03 02:07:08;;;;;;;5.28;3.83;;;;;;;;;;5050493;28;20152;-74
2021/08/03 02:09:53;;;;;;;4.72;3.30;;;;;;;;;;5039767;28;20155;-75
2021/08/03 02:12:37;;;;;;;5.07;3.47;;;;;;;;;;5046500;28;20047;-74
2021/08/03 02:15:22;;;;;;;4.70;3.33;;;;;;;;;;5045978;28;20099;-74
2021/08/03 02:18:06;;;;;;;5.85;3.70;;;;;;;;;;5059910;28;20040;-74
2021/08/03 02:20:53;;;;;;;4.13;3.22;;;;;;;;;;5036311;28;20087;-75
2021/08/03 02:23:38;;;;;;;4.65;3.40;;;;;;;;;;5046803;28;20125;-74
2021/08/03 02:26:22;;;;;;;5.32;3.00;;;;;;;;;;5073149;28;20492;-74
2021/08/03 02:29:07;;;;;;;4.28;3.22;;;;;;;;;;5056166;28;20055;-74
2021/08/03 02:31:53;;;;;;;5.53;3.40;;;;;;;;;;5051246;28;20079;-74
2021/08/03 02:34:42;;;;;;;4.60;3.28;;;;;;;;;;5030387;28;20143;-74
2021/08/03 02:37:31;;;;;;;4.55;3.10;;;;;;;;;;5044516;28;20052;-75
2021/08/03 02:40:16;;;;;;;4.45;3.58;;;;;;;;;;5055700;28;20039;-74
2021/08/03 02:43:01;;;;;;;4.45;2.83;;;;;;;;;;5042804;28;20476;-74
2021/08/03 02:45:46;;;;;;;4.78;3.33;;;;;;;;;;5035878;28;20062;-74
2021/08/03 02:48:31;;;;;;;4.22;2.90;;;;;;;;;;5067124;28;20069;-74
2021/08/03 02:51:16;;;;;;;5.03;3.25;;;;;;;;;;5068660;28;20071;-74
2021/08/03 02:54:03;;;;;;;4.57;3.25;;;;;;;;;;5053536;28;20140;-74
2021/08/03 02:56:48;;;;;;;4.22;2.83;;;;;;;;;;5049460;28;20059;-74
2021/08/03 02:59:33;;;;;;;4.97;3.15;;;;;;;;;;5064481;28;20039;-74
2021/08/03 03:02:18;;;;;;;3.88;2.90;;;;;;;;;;5046752;28;20513;-74
2021/08/03 03:05:28;;;;;;;4.30;2.90;;;;;;;;;;5046661;28;20520;-74
2021/08/03 03:08:14;;;;;;;5.05;2.95;;;;;;;;;;5059397;28;20051;-74
2021/08/03 03:11:00;;;;;;;3.83;3.00;;;;;;;;;;5037023;28;20039;-74
2021/08/03 03:13:48;;;;;;;5.47;3.30;;;;;;;;;;5050449;28;20059;-74
2021/08/03 03:16:38;;;;;;;4.53;3.35;;;;;;;;;;5066258;28;20682;-75
2021/08/03 03:19:23;;;;;;;4.10;3.03;;;;;;;;;;5049793;28;20040;-74
2021/08/03 03:22:07;;;;;;;4.35;3.38;;;;;;;;;;5065740;28;20483;-74
2021/08/03 03:24:52;;;;;;;4.43;3.17;;;;;;;;;;5035148;28;20063;-74
2021/08/03 03:27:38;;;;;;;4.47;3.30;;;;;;;;;;5047718;28;20059;-74
2021/08/03 03:30:22;;;;;;;4.22;3.20;;;;;;;;;;5039645;28;20439;-74
2021/08/03 03:33:07;;;;;;;6.43;3.38;;;;;;;;;;5052537;28;20043;-74
2021/08/03 03:35:52;;;;;;;4.53;2.80;;;;;;;;;;5041836;28;20071;-74
2021/08/03 03:38:37;;;;;;;4.57;3.13;;;;;;;;;;5044374;28;20055;-74
2021/08/03 03:41:28;;;;;;;3.95;3.08;;;;;;;;;;5036793;28;20117;-74
2021/08/03 03:44:12;;;;;;;4.73;3.10;;;;;;;;;;5041333;28;20035;-74
2021/08/03 03:47:02;;;;;;;5.25;3.20;;;;;;;;;;5032701;28;20409;-74
2021/08/03 03:49:47;;;;;;;4.80;3.00;;;;;;;;;;5051728;28;20126;-74
2021/08/03 03:52:33;;;;;;;3.72;2.75;;;;;;;;;;5062311;28;20105;-74
2021/08/03 03:55:19;;;;;;;4.88;3.17;;;;;;;;;;5038791;28;20548;-74
2021/08/03 03:58:04;;;;;;;4.35;3.13;;;;;;;;;;5066710;28;20510;-73
2021/08/03 04:00:49;;;;;;;4.40;3.50;;;;;;;;;;5046347;28;20094;-74
2021/08/03 04:03:34;;;;;;;4.43;2.65;;;;;;;;;;5057454;28;20067;-75
2021/08/03 04:06:19;;;;;;;3.67;2.78;;;;;;;;;;5057677;28;20044;-74
2021/08/03 04:09:04;;;;;;;4.20;3.28;;;;;;;;;;5018020;28;20055;-74
2021/08/03 04:11:48;;;;;;;5.43;3.05;;;;;;;;;;5030063;28;20043;-74
2021/08/03 04:14:33;;;;;;;3.90;3.10;;;;;;;;;;5068752;28;20085;-74
2021/08/03 04:17:18;;;;;;;4.50;3.00;;;;;;;;;;5045686;28;20058;-74
2021/08/03 04:20:03;;;;;;;4.20;2.70;;;;;;;;;;5065020;28;20075;-74
2021/08/03 04:22:48;;;;;;;4.93;3.03;;;;;;;;;;5060073;28;20175;-74
2021/08/03 04:25:33;;;;;;;4.53;2.90;;;;;;;;;;5054280;28;20489;-75
2021/08/03 04:28:17;;;;;;;4.38;3.28;;;;;;;;;;5045631;28;21649;-75
2021/08/03 04:31:02;;;;;;;4.55;3.10;;;;;;;;;;5030323;28;20504;-75
2021/08/03 04:33:46;;;;;;;4.07;2.95;;;;;;;;;;5041336;28;20039;-74
2021/08/03 04:36:31;;;;;;;3.90;3.17;;;;;;;;;;5056887;28;20162;-75
2021/08/03 04:39:15;;;;;;;3.78;3.00;;;;;;;;;;5070589;28;20028;-75
2021/08/03 04:42:00;;;;;;;3.80;3.00;;;;;;;;;;5027632;28;20044;-75
2021/08/03 04:44:44;;;;;;;4.15;2.97;;;;;;;;;;5046155;28;20067;-75
2021/08/03 04:47:29;;;;;;;4.00;3.13;;;;;;;;;;5064855;28;20051;-76
2021/08/03 04:50:15;;;;;;;3.85;3.05;;;;;;;;;;5031527;28;20496;-76
2021/08/03 04:53:00;;;;;;;4.15;3.08;;;;;;;;;;5042604;28;20089;-75
2021/08/03 04:55:44;;;;;;;4.70;3.38;;;;;;;;;;5047300;28;20608;-75
2021/08/03 04:58:29;;;;;;;4.15;3.05;;;;;;;;;;5042496;28;20060;-75
2021/08/03 05:01:13;;;;;;;4.00;2.90;;;;;;;;;;5028170;28;20055;-75
2021/08/03 05:03:58;;;;;;;4.20;3.13;;;;;;;;;;5063050;28;20170;-75
2021/08/03 05:06:42;;;;;;;5.00;3.47;;;;;;;;;;5068846;28;20078;-75
2021/08/03 05:09:27;;;;;;;4.07;3.00;;;;;;;;;;5035058;28;20087;-75
2021/08/03 05:12:12;;;;;;;4.18;3.05;;;;;;;;;;5046301;28;20065;-75
2021/08/03 05:15:00;;;;;;;4.88;3.25;;;;;;;;;;5057321;28;20047;-75
2021/08/03 05:17:45;;;;;;;4.00;3.10;;;;;;;;;;5049493;28;20038;-74
2021/08/03 05:20:29;;;;;;;3.95;2.95;;;;;;;;;;5035488;28;20051;-75
2021/08/03 05:23:13;;;;;;;4.30;3.00;;;;;;;;;;5048803;28;20047;-75
2021/08/03 05:25:58;;;;;;;4.55;3.05;;;;;;;;;;5049961;28;20518;-75
2021/08/03 05:28:43;;;;;;;4.40;3.20;;;;;;;;;;5048363;28;20846;-75
2021/08/03 05:31:27;;;;;;;4.90;3.33;;;;;;;;;;5041338;28;20449;-75
2021/08/03 05:34:12;;;;;;;4.45;3.10;;;;;;;;;;5051953;28;20047;-75
2021/08/03 05:36:57;;;;;;;6.80;3.60;;;;;;;;;;5054406;28;20089;-75
2021/08/03 05:39:41;;;;;;;4.85;3.33;;;;;;;;;;5052056;28;20120;-75
2021/08/03 05:42:26;;;;;;;4.93;3.75;;;;;;;;;;5052083;28;20034;-75
2021/08/03 05:45:11;;;;;;;5.43;3.45;;;;;;;;;;5073191;28;20055;-76
2021/08/03 05:47:56;;;;;;;5.18;3.50;;;;;;;;;;5036455;28;20510;-75
2021/08/03 05:50:40;;;;;;;4.35;3.22;;;;;;;;;;5045788;28;20051;-75
2021/08/03 05:53:25;;;;;;;4.75;3.40;;;;;;;;;;5056572;28;20059;-75
2021/08/03 05:56:11;;;;;;;5.13;3.50;;;;;;;;;;5029884;28;20182;-76
2021/08/03 05:58:55;;;;;;;4.25;3.25;;;;;;;;;;5080358;28;20038;-75
2021/08/03 06:01:40;;;;;;;4.72;3.20;;;;;;;;;;5046474;28;20075;-75
2021/08/03 06:04:24;;;;;;;4.35;3.28;;;;;;;;;;5056358;28;20136;-75
2021/08/03 06:07:10;;;;;;;4.80;3.45;;;;;;;;;;5065737;28;20047;-75
2021/08/03 06:09:57;;;;;;;4.40;3.30;;;;;;;;;;5060694;28;20096;-75
2021/08/03 06:12:51;;;;;;;4.88;2.97;;;;;;;;;;5048949;28;20121;-75
2021/08/03 06:15:39;;;;;;;4.22;3.30;;;;;;;;;;5049504;28;20039;-75
2021/08/03 06:18:29;;;;;;;5.70;3.28;;;;;;;;;;5045144;28;20155;-75
2021/08/03 06:21:13;;;;;;;4.45;3.38;;;;;;;;;;5032420;28;20036;-76
2021/08/03 06:23:58;;;;;;;3.95;3.28;;;;;;;;;;5032053;28;20684;-75
2021/08/03 06:26:45;;;;;;;4.80;3.42;;;;;;;;;;5033569;28;20044;-75
2021/08/03 06:29:29;;;;;;;5.00;3.38;;;;;;;;;;5044988;28;20756;-75
2021/08/03 06:32:14;;;;;;;4.38;3.13;;;;;;;;;;5051612;28;20109;-76
2021/08/03 06:34:58;;;;;;;5.15;3.20;;;;;;;;;;5035923;28;20140;-74
2021/08/03 06:37:43;;;;;;;4.47;3.10;;;;;;;;;;5031258;28;20063;-75
2021/08/03 06:40:31;;;;;;;5.13;3.13;;;;;;;;;;5053760;28;20499;-75
2021/08/03 06:43:18;;;;;;;4.72;3.20;;;;;;;;;;5022489;28;20040;-75
2021/08/03 06:46:04;;;;;;;4.68;3.35;;;;;;;;;;5059743;28;20085;-75
2021/08/03 06:48:52;;;;;;;3.60;2.90;;;;;;;;;;5034347;28;20052;-75
2021/08/03 06:51:37;;;;;;;3.90;3.05;;;;;;;;;;5055753;28;20074;-75
2021/08/03 06:54:22;;;;;;;4.82;2.97;;;;;;;;;;5050636;28;20042;-75
2021/08/03 06:57:09;;;;;;;4.72;3.30;;;;;;;;;;5050531;28;20435;-75
2021/08/03 06:59:54;;;;;;;4.45;3.03;;;;;;;;;;5056077;28;20100;-75
2021/08/03 07:02:43;;;;;;;3.85;3.00;;;;;;;;;;5029694;28;20056;-75
2021/08/03 07:05:28;;;;;;;4.68;3.35;;;;;;;;;;5037298;28;20120;-75
2021/08/03 07:08:13;;;;;;;4.13;3.10;;;;;;;;;;5061623;28;20050;-75
2021/08/03 07:10:57;;;;;;;4.20;2.95;;;;;;;;;;5027854;28;20505;-76
2021/08/03 07:13:42;;;;;;;5.85;4.15;;;;;;;;;;5048693;28;20140;-76
2021/08/03 07:16:27;;;;;;;4.30;3.25;;;;;;;;;;5035488;28;20066;-76
2021/08/03 07:19:12;;;;;;;5.32;3.35;;;;;;;;;;5063708;28;20505;-75
2021/08/03 07:21:56;;;;;;;4.75;3.50;;;;;;;;;;5045628;28;20039;-75
2021/08/03 07:24:44;;;;;;;4.80;3.20;;;;;;;;;;5029756;28;20043;-75
2021/08/03 07:27:29;;;;;;;5.95;3.05;;;;;;;;;;5054732;28;20051;-76
2021/08/03 07:30:15;;;;;;;4.22;3.15;;;;;;;;;;5019826;28;20555;-75
2021/08/03 07:33:00;;;;;;;4.35;3.17;;;;;;;;;;5053459;28;20587;-75
2021/08/03 07:35:44;;;;;;;4.10;3.00;;;;;;;;;;5038622;28;20822;-75
2021/08/03 07:38:29;;;;;;;4.15;3.22;;;;;;;;;;5030039;28;20538;-76
2021/08/03 07:41:13;;;;;;;4.80;3.20;;;;;;;;;;5061055;28;20402;-75
2021/08/03 07:43:58;;;;;;;4.53;3.50;;;;;;;;;;5063591;28;20043;-75
2021/08/03 07:46:43;;;;;;;4.75;3.50;;;;;;;;;;5051726;28;20038;-76
2021/08/03 07:49:28;;;;;;;5.45;3.50;;;;;;;;;;5043947;28;20625;-76
2021/08/03 07:52:12;;;;;;;4.68;2.78;;;;;;;;;;5025935;28;20078;-75
2021/08/03 07:54:57;;;;;;;4.10;2.95;;;;;;;;;;5063650;28;20063;-76
2021/08/03 07:57:41;;;;;;;5.00;3.30;;;;;;;;;;5033814;28;20043;-75
2021/08/03 08:00:26;;;;;;;4.80;3.05;;;;;;;;;;5052248;28;20043;-76
2021/08/03 08:03:11;;;;;;;5.32;4.18;;;;;;;;;;5017407;28;20075;-75
2021/08/03 08:05:55;;;;;;;4.57;3.47;;;;;;;;;;5048759;28;20051;-76
2021/08/03 08:08:40;;;;;;;3.50;2.72;;;;;;;;;;5047311;28;20124;-75
2021/08/03 08:11:24;;;;;;;4.40;3.00;;;;;;;;;;5068954;28;20394;-75
2021/08/03 08:14:09;;;;;;;4.65;3.30;;;;;;;;;;5027105;28;20040;-76
2021/08/03 08:16:54;;;;;;;4.32;3.00;;;;;;;;;;5044453;28;20075;-75
2021/08/03 08:19:40;;;;;;;5.20;3.25;;;;;;;;;;5053795;28;20040;-75
2021/08/03 08:22:24;;;;;;;4.78;3.28;;;;;;;;;;5047719;28;20052;-75
2021/08/03 08:25:10;;;;;;;3.40;2.55;;;;;;;;;;5029300;28;20068;-75
2021/08/03 08:27:55;;;;;;;4.13;3.00;;;;;;;;;;5036630;28;20102;-75
2021/08/03 08:30:40;;;;;;;4.93;3.20;;;;;;;;;;5030759;28;20106;-75
2021/08/03 08:33:25;;;;;;;4.40;3.05;;;;;;;;;;5052616;28;20044;-75
2021/08/03 08:36:09;;;;;;;5.65;3.40;;;;;;;;;;5059588;28;20094;-76
2021/08/03 08:38:54;;;;;;;4.55;3.10;;;;;;;;;;5032106;28;20044;-75
2021/08/03 08:41:39;;;;;;;4.55;3.30;;;;;;;;;;5045817;28;20807;-75
2021/08/03 08:44:23;;;;;;;4.00;2.85;;;;;;;;;;5048928;28;20111;-75
2021/08/03 08:47:08;;;;;;;4.03;2.95;;;;;;;;;;5041653;28;20506;-75
2021/08/03 08:49:53;;;;;;;3.53;2.72;;;;;;;;;;5048388;28;20043;-75
2021/08/03 08:52:38;;;;;;;4.13;3.00;;;;;;;;;;5044026;28;20090;-75
2021/08/03 08:55:23;;;;;;;4.05;2.88;;;;;;;;;;5048227;28;20043;-75
2021/08/03 08:58:08;;;;;;;4.72;3.10;;;;;;;;;;5062936;28;20088;-75
2021/08/03 09:00:52;;;;;;;4.40;2.70;;;;;;;;;;5045744;28;20094;-75
2021/08/03 09:03:37;;;;;;;3.78;2.83;;;;;;;;;;5048904;28;20086;-76
2021/08/03 09:06:21;;;;;;;4.32;3.03;;;;;;;;;;5043371;28;20075;-75
2021/08/03 09:09:13;;;;;;;3.85;3.00;;;;;;;;;;5035512;28;20071;-75
2021/08/03 09:11:58;;;;;;;5.13;3.03;;;;;;;;;;5036240;28;20035;-76
2021/08/03 09:14:43;;;;;;;3.67;2.65;;;;;;;;;;5063648;28;20496;-75
2021/08/03 09:17:29;;;;;;;4.60;3.00;;;;;;;;;;5063471;28;20046;-76
2021/08/03 09:20:14;;;;;;;4.47;3.20;;;;;;;;;;5046739;28;20044;-76
2021/08/03 09:22:59;;;;;;;3.70;2.67;;;;;;;;;;5046368;28;20525;-76
2021/08/03 09:25:54;;;;;;;4.45;2.92;;;;;;;;;;5029268;28;20032;-75
2021/08/03 09:28:57;;;;;;;3.63;2.67;;;;;;;;;;5046306;28;20055;-75
2021/08/03 09:31:50;;;;;;;3.35;2.80;;;;;;;;;;5061786;28;20047;-75
2021/08/03 09:34:35;;;;;;;3.70;2.63;;;;;;;;;;5047863;28;20119;-75
2021/08/03 09:37:20;;;;;;;3.83;2.70;;;;;;;;;;5039333;28;20074;-75
2021/08/03 09:40:08;;;;;;;3.75;2.80;;;;;;;;;;5032737;28;20312;-76
2021/08/03 09:43:03;;;;;;;4.35;2.72;;;;;;;;;;5029363;28;20962;-76
2021/08/03 09:45:58;;;;;;;5.32;2.88;;;;;;;;;;5037180;28;20082;-76
2021/08/03 09:48:44;;;;;;;3.63;2.80;;;;;;;;;;5057464;28;20047;-75
2021/08/03 09:51:29;;;;;;;5.25;3.03;;;;;;;;;;5024371;28;20043;-76
2021/08/03 09:54:18;;;;;;;6.20;3.83;;;;;;;;;;5054487;28;20042;-78
2021/08/03 09:57:03;;;;;;;6.60;4.30;;;;;;;;;;5068242;28;20040;-76
2021/08/03 09:59:48;;;;;;;12.52;9.48;;;;;;;;;;5048732;28;20035;-76
2021/08/03 10:02:33;;;;;;;14.18;10.50;;;;;;;;;;5051990;28;20520;-76
2021/08/03 10:05:18;;;;;;;15.68;12.50;;;;;;;;;;5053307;28;20036;-76
2021/08/03 10:08:02;;;;;;;20.58;16.27;;;;;;;;;;5050399;28;20106;-76
2021/08/03 10:10:46;;;;;;;20.67;16.55;;;;;;;;;;5033340;28;20105;-76
2021/08/03 10:13:31;;;;;;;25.42;19.38;;;;;;;;;;5034606;28;20055;-76
2021/08/03 10:16:16;;;;;;;23.58;18.55;;;;;;;;;;5035566;28;20063;-76
2021/08/03 10:19:01;;;;;;;21.15;16.55;;;;;;;;;;5044326;28;20050;-76
2021/08/03 10:21:47;;;;;;;20.00;15.77;;;;;;;;;;5050995;28;20094;-76
2021/08/03 10:24:35;;;;;;;20.73;16.08;;;;;;;;;;5032717;28;20109;-76
2021/08/03 10:27:20;;;;;;;23.40;17.38;;;;;;;;;;5033338;28;20043;-76
2021/08/03 10:30:05;;;;;;;22.27;17.50;;;;;;;;;;5038883;28;20671;-76
2021/08/03 10:32:52;;;;;;;22.73;17.20;;;;;;;;;;5045679;28;20583;-78
2021/08/03 10:35:42;;;;;;;24.67;19.08;;;;;;;;;;5039963;28;20670;-76
2021/08/03 10:38:29;;;;;;;26.90;21.75;;;;;;;;;;5040851;28;21262;-77
2021/08/03 10:41:16;;;;;;;22.30;16.67;;;;;;;;;;5039186;28;20062;-76
2021/08/03 10:44:04;;;;;;;24.65;19.63;;;;;;;;;;5043131;28;20048;-77
2021/08/03 10:46:48;;;;;;;26.23;21.33;;;;;;;;;;5047716;28;20035;-76
2021/08/03 10:50:00;;;;;;;29.00;22.52;;;;;;;;;;5034542;28;20101;-76
2021/08/03 10:52:48;;;;;;;28.90;23.33;;;;;;;;;;5064597;28;20063;-77
2021/08/03 10:55:59;;;;;;;28.40;21.90;;;;;;;;;;5064363;28;20043;-78
2021/08/03 10:58:44;;;;;;;22.88;15.45;;;;;;;;;;5049699;28;20070;-78
2021/08/03 11:01:44;;;;;;;13.57;10.82;;;;;;;;;;5048026;28;20060;-78
2021/08/03 11:04:48;;;;;;;16.73;12.27;;;;;;;;;;5042311;28;20146;-76
2021/08/03 11:07:36;;;;;;;24.90;19.30;;;;;;;;;;5061347;28;20094;-75
2021/08/03 11:10:21;;;;;;;28.90;22.33;;;;;;;;;;5026866;28;20051;-76
2021/08/03 11:13:06;;;;;;;28.35;22.45;;;;;;;;;;5048093;28;20098;-75
2021/08/03 11:15:50;;;;;;;30.23;23.88;;;;;;;;;;5042610;28;20039;-75
2021/08/03 11:18:42;;;;;;;32.05;25.58;;;;;;;;;;5029692;28;20043;-75
2021/08/03 11:21:26;;;;;;;29.10;23.27;;;;;;;;;;5031717;28;20035;-76
2021/08/03 11:24:14;;;;;;;30.02;21.85;;;;;;;;;;5061055;28;20044;-76
2021/08/03 11:26:58;;;;;;;26.45;21.65;;;;;;;;;;5050813;28;20862;-76
2021/08/03 11:29:43;;;;;;;29.73;22.30;;;;;;;;;;5032067;28;20055;-75
2021/08/03 11:32:27;;;;;;;27.70;21.35;;;;;;;;;;5048446;28;20043;-75
2021/08/03 11:35:12;;;;;;;25.50;20.38;;;;;;;;;;5034048;28;20503;-76
2021/08/03 11:38:01;;;;;;;29.92;21.00;;;;;;;;;;5047150;28;20039;-76
2021/08/03 11:40:46;;;;;;;26.65;19.83;;;;;;;;;;5045968;28;20043;-77
2021/08/03 11:43:31;;;;;;;22.00;18.80;;;;;;;;;;5049637;28;20097;-79
2021/08/03 11:46:27;;;;;;;26.00;20.88;;;;;;;;;;5031076;28;20048;-81
2021/08/03 11:49:12;;;;;;;24.67;19.35;;;;;;;;;;5046124;28;20043;-80
2021/08/03 11:52:16;;;;;;;23.75;18.88;;;;;;;;;;5040060;28;20120;-78
2021/08/03 11:55:01;;;;;;;23.90;18.58;;;;;;;;;;5048069;28;20055;-80
2021/08/03 11:57:48;;;;;;;26.05;19.48;;;;;;;;;;5044642;28;20555;-78
2021/08/03 12:00:33;;;;;;;24.65;19.25;;;;;;;;;;5047700;28;20040;-77
2021/08/03 12:03:22;;;;;;;25.23;19.50;;;;;;;;;;5047733;28;20072;-80
2021/08/03 12:06:06;;;;;;;27.70;20.70;;;;;;;;;;5049113;28;20078;-81
2021/08/03 12:08:51;;;;;;;22.85;18.48;;;;;;;;;;5048652;28;20048;-79
2021/08/03 12:11:35;;;;;;;20.08;15.65;;;;;;;;;;5050366;28;20093;-82
2021/08/03 12:14:20;;;;;;;19.10;15.93;;;;;;;;;;5047262;28;20047;-83
2021/08/03 12:17:08;;;;;;;21.42;14.82;;;;;;;;;;5029763;28;20064;-81
2021/08/03 12:20:00;;;;;;;20.95;15.98;;;;;;;;;;5030244;28;20039;-77
2021/08/03 12:22:45;;;;;;;20.83;14.75;;;;;;;;;;5048934;28;20125;-83
2021/08/03 12:25:39;;;;;;;22.08;15.23;;;;;;;;;;5032697;28;20688;-80
2021/08/03 12:28:36;;;;;;;24.67;14.63;;;;;;;;;;5057488;28;20074;-82
2021/08/03 12:31:28;;;;;;;19.45;13.80;;;;;;;;;;5046531;28;20098;-81
2021/08/03 12:34:18;;;;;;;20.65;13.82;;;;;;;;;;5040699;28;20400;-80
2021/08/03 12:37:02;;;;;;;19.83;14.32;;;;;;;;;;5061354;28;20661;-81
2021/08/03 12:39:48;;;;;;;18.70;14.32;;;;;;;;;;5048033;28;20043;-77
2021/08/03 12:42:46;;;;;;;19.45;15.07;;;;;;;;;;5028961;28;20500;-80
2021/08/03 12:45:31;;;;;;;23.17;16.13;;;;;;;;;;5060594;28;20079;-80
2021/08/03 12:48:15;;;;;;;21.92;16.00;;;;;;;;;;5041045;28;20055;-83
2021/08/03 12:51:02;;;;;;;23.08;15.63;;;;;;;;;;5030425;28;20932;-79
2021/08/03 12:53:47;;;;;;;25.05;16.27;;;;;;;;;;5047999;28;20467;-81
2021/08/03 12:56:46;;;;;;;20.45;15.85;;;;;;;;;;5043530;28;20055;-84
2021/08/03 12:59:31;;;;;;;22.13;15.27;;;;;;;;;;5032808;28;20382;-83
2021/08/03 13:02:16;;;;;;;19.67;14.45;;;;;;;;;;5046264;28;20036;-81
2021/08/03 13:05:00;;;;;;;19.10;13.98;;;;;;;;;;5045961;28;20039;-79
2021/08/03 13:07:45;;;;;;;19.40;13.35;;;;;;;;;;5033347;28;20094;-77
2021/08/03 13:10:30;;;;;;;20.35;13.82;;;;;;;;;;5056642;28;20050;-76
2021/08/03 13:13:15;;;;;;;19.20;13.70;;;;;;;;;;5039437;28;20043;-78
2021/08/03 13:16:00;;;;;;;22.60;13.80;;;;;;;;;;5052740;28;20147;-78
2021/08/03 13:18:45;;;;;;;21.13;14.55;;;;;;;;;;5051544;28;20040;-78
2021/08/03 13:21:29;;;;;;;21.27;13.35;;;;;;;;;;5058128;28;20062;-78
2021/08/03 13:24:14;;;;;;;18.20;12.63;;;;;;;;;;5075429;28;20054;-78
2021/08/03 13:26:58;;;;;;;19.15;12.18;;;;;;;;;;5052359;28;20119;-78
2021/08/03 13:29:43;;;;;;;16.63;11.50;;;;;;;;;;5047764;28;20081;-77
2021/08/03 13:32:28;;;;;;;16.88;10.80;;;;;;;;;;5040814;28;20496;-77
2021/08/03 13:35:13;;;;;;;14.93;10.80;;;;;;;;;;5052758;28;20131;-76
2021/08/03 13:37:58;;;;;;;15.43;11.10;;;;;;;;;;5034440;28;20047;-76
2021/08/03 13:40:44;;;;;;;13.60;11.18;;;;;;;;;;5045288;28;20035;-77
2021/08/03 13:43:29;;;;;;;20.23;12.50;;;;;;;;;;5045174;28;20136;-78
2021/08/03 13:46:13;;;;;;;17.60;11.88;;;;;;;;;;5044291;28;20043;-79
2021/08/03 13:48:58;;;;;;;18.30;12.02;;;;;;;;;;5046761;28;20052;-78
2021/08/03 13:51:43;;;;;;;19.63;11.32;;;;;;;;;;5031183;28;20625;-79
2021/08/03 13:54:28;;;;;;;15.88;11.25;;;;;;;;;;5059896;28;20248;-80
2021/08/03 13:57:13;;;;;;;19.75;11.25;;;;;;;;;;5029254;28;20143;-80
2021/08/03 13:59:58;;;;;;;14.38;10.60;;;;;;;;;;5036998;28;20059;-77
2021/08/03 14:02:42;;;;;;;14.13;9.15;;;;;;;;;;5042128;28;20043;-77
2021/08/03 14:05:27;;;;;;;13.80;9.65;;;;;;;;;;5057425;28;20044;-77
2021/08/03 14:08:12;;;;;;;13.68;9.20;;;;;;;;;;5045586;28;20047;-77
2021/08/03 14:10:57;;;;;;;16.08;8.88;;;;;;;;;;5028473;28;20119;-75
2021/08/03 14:13:42;;;;;;;14.00;8.77;;;;;;;;;;5047285;28;20047;-76
2021/08/03 14:16:26;;;;;;;13.32;8.98;;;;;;;;;;5047906;28;20133;-76
2021/08/03 14:19:14;;;;;;;14.20;9.25;;;;;;;;;;5043673;28;20070;-76
2021/08/03 14:21:58;;;;;;;15.60;9.00;;;;;;;;;;5048175;28;20656;-80
2021/08/03 14:24:43;;;;;;;14.30;9.13;;;;;;;;;;5036584;28;20058;-78
2021/08/03 14:27:28;;;;;;;12.77;9.18;;;;;;;;;;5050313;28;20077;-78
2021/08/03 14:30:13;;;;;;;14.15;9.80;;;;;;;;;;5024425;28;20044;-79
2021/08/03 14:32:57;;;;;;;14.50;10.05;;;;;;;;;;5026353;28;20079;-77
2021/08/03 14:35:42;;;;;;;14.27;9.15;;;;;;;;;;5043471;28;20135;-76
2021/08/03 14:38:27;;;;;;;11.43;8.27;;;;;;;;;;5030650;28;20044;-74
2021/08/03 14:41:11;;;;;;;12.55;8.90;;;;;;;;;;5025084;28;20517;-75
2021/08/03 14:43:56;;;;;;;14.30;9.55;;;;;;;;;;5036889;28;20063;-75
2021/08/03 14:46:41;;;;;;;14.40;9.70;;;;;;;;;;5040866;28;20075;-74
2021/08/03 14:49:26;;;;;;;16.10;10.45;;;;;;;;;;5023652;28;21722;-75
2021/08/03 14:52:11;;;;;;;16.25;12.27;;;;;;;;;;5034348;28;20038;-75
2021/08/03 14:54:55;;;;;;;18.83;13.20;;;;;;;;;;5061256;28;20051;-76
2021/08/03 14:57:40;;;;;;;21.23;17.38;;;;;;;;;;5044596;28;20047;-76
2021/08/03 15:00:25;;;;;;;22.27;16.08;;;;;;;;;;5046224;28;20836;-76
2021/08/03 15:03:10;;;;;;;20.75;15.60;;;;;;;;;;5044400;28;20082;-75
2021/08/03 15:05:54;;;;;;;20.45;14.98;;;;;;;;;;5041191;28;20040;-75
2021/08/03 15:08:40;;;;;;;24.23;17.10;;;;;;;;;;5056183;28;20170;-76
2021/08/03 15:11:24;;;;;;;18.88;15.40;;;;;;;;;;5044418;28;20488;-76
2021/08/03 15:14:09;;;;;;;18.65;15.15;;;;;;;;;;5028672;28;20042;-75
2021/08/03 15:16:54;;;;;;;21.77;16.45;;;;;;;;;;5059839;28;20134;-74
2021/08/03 15:19:38;;;;;;;18.15;14.00;;;;;;;;;;5042317;28;20052;-75
2021/08/03 15:22:23;;;;;;;22.60;15.73;;;;;;;;;;5056791;28;20130;-75
2021/08/03 15:25:08;;;;;;;20.20;15.25;;;;;;;;;;5040632;28;20031;-75
2021/08/03 15:27:53;;;;;;;17.13;14.30;;;;;;;;;;5026406;28;20459;-75
2021/08/03 15:30:38;;;;;;;16.25;12.88;;;;;;;;;;5056793;28;20093;-78
2021/08/03 15:33:22;;;;;;;21.77;15.45;;;;;;;;;;5042103;28;20070;-75
2021/08/03 15:36:07;;;;;;;30.98;21.92;;;;;;;;;;5043980;28;20036;-75
2021/08/03 15:38:51;;;;;;;43.33;27.15;;;;;;;;;;5044178;28;20075;-74
2021/08/03 15:41:36;;;;;;;88.90;46.88;;;;;;;;;;5027739;28;20118;-76
2021/08/03 15:44:23;;;;;;;113.72;55.08;;;;;;;;;;5041247;28;20058;-75
2021/08/03 15:47:08;;;;;;;142.30;64.55;;;;;;;;;;5040304;28;20174;-75
2021/08/03 15:49:52;;;;;;;138.45;63.65;;;;;;;;;;5056822;28;20074;-75
2021/08/03 15:52:37;;;;;;;155.25;70.47;;;;;;;;;;5054295;28;20094;-73
2021/08/03 15:55:22;;;;;;;164.25;71.63;;;;;;;;;;5030824;28;20675;-75
2021/08/03 15:58:07;;;;;;;167.93;72.25;;;;;;;;;;5042806;28;20649;-75
2021/08/03 16:00:51;;;;;;;166.18;72.97;;;;;;;;;;5043677;28;20036;-77
2021/08/03 16:03:36;;;;;;;156.57;69.55;;;;;;;;;;5042644;28;20063;-76
2021/08/03 16:06:21;;;;;;;146.63;66.07;;;;;;;;;;5034942;28;20063;-77
2021/08/03 16:09:05;;;;;;;141.65;62.28;;;;;;;;;;5035135;28;20091;-77
2021/08/03 16:11:51;;;;;;;119.80;55.25;;;;;;;;;;5042663;28;20044;-76
2021/08/03 16:14:35;;;;;;;134.55;56.17;;;;;;;;;;5061120;28;20045;-76
2021/08/03 16:17:21;;;;;;;112.32;52.67;;;;;;;;;;5032083;28;20036;-76
2021/08/03 16:20:06;;;;;;;120.57;52.95;;;;;;;;;;5046783;28;20077;-76
2021/08/03 16:22:51;;;;;;;108.20;49.60;;;;;;;;;;5038592;28;20043;-76
2021/08/03 16:25:36;;;;;;;97.50;45.42;;;;;;;;;;5039036;28;20040;-76